createdAt,value
2018-02-17T00:15:57.964Z,16.02
2018-02-17T00:18:24.611Z,12.80
2018-02-17T00:30:36.186Z,11.65
2018-02-17T00:33:03.491Z,12.68
2018-02-17T00:35:30.143Z,14.32
2018-02-17T00:37:57.139Z,14.38
2018-02-17T00:40:23.965Z,14.52
2018-02-17T00:42:51.290Z,14.63
2018-02-17T00:45:17.555Z,14.32
2018-02-17T00:47:44.525Z,13.05
2018-02-17T00:50:10.732Z,16.00
2018-02-17T00:52:38.688Z,14.55
2018-02-17T00:55:05.296Z,13.40
2018-02-17T00:57:32.824Z,13.00
2018-02-17T00:59:59.049Z,12.40
2018-02-17T01:02:25.887Z,12.00
2018-02-17T01:04:52.150Z,12.80
2018-02-17T01:07:19.046Z,11.45
2018-02-17T01:09:46.566Z,12.18
2018-02-17T01:12:13.470Z,11.63
2018-02-17T01:14:40.610Z,13.52
2018-02-17T01:17:07.571Z,12.93
2018-02-17T01:19:34.362Z,12.00
2018-02-17T01:22:01.557Z,13.90
2018-02-17T01:24:27.967Z,11.00
2018-02-17T01:26:55.565Z,11.25
2018-02-17T01:29:22.810Z,12.10
2018-02-17T01:31:49.258Z,9.35
2018-02-17T01:34:16.304Z,9.45
2018-02-17T01:36:43.041Z,11.10
2018-02-17T01:39:10.429Z,12.20
2018-02-17T01:41:38.647Z,10.10
2018-02-17T01:44:05.746Z,10.05
2018-02-17T01:46:32.657Z,13.77
2018-02-17T01:48:59.425Z,12.73
2018-02-17T01:51:26.167Z,9.85
2018-02-17T01:53:52.474Z,10.63
2018-02-17T01:56:19.403Z,9.68
2018-02-17T01:58:46.918Z,9.45
2018-02-17T02:01:13.403Z,10.90
2018-02-17T02:03:39.882Z,8.73
2018-02-17T02:06:07.647Z,8.80
2018-02-17T02:08:34.334Z,8.02
2018-02-17T02:11:00.568Z,9.35
2018-02-17T02:13:27.428Z,9.07
2018-02-17T02:15:56.210Z,8.85
2018-02-17T02:18:22.959Z,10.07
2018-02-17T02:20:49.698Z,7.53
2018-02-17T02:23:16.182Z,7.50
2018-02-17T02:25:43.311Z,7.07
2018-02-17T02:28:09.735Z,9.18
2018-02-17T02:30:36.404Z,8.57
2018-02-17T02:33:03.187Z,9.18
2018-02-17T02:35:30.712Z,8.48
2018-02-17T02:37:57.667Z,8.90
2018-02-17T02:40:25.187Z,8.18
2018-02-17T02:42:51.827Z,9.57
2018-02-17T02:45:19.497Z,9.05
2018-02-17T02:47:47.026Z,7.95
2018-02-17T02:50:14.567Z,7.37
2018-02-17T02:52:40.840Z,9.40
2018-02-17T02:55:08.343Z,7.72
2018-02-17T02:57:35.189Z,9.98
2018-02-17T03:00:02.543Z,11.73
2018-02-17T03:02:29.245Z,11.90
2018-02-17T03:04:56.234Z,11.48
2018-02-17T03:07:22.450Z,14.10
2018-02-17T03:09:49.243Z,18.12
2018-02-17T03:12:16.460Z,12.07
2018-02-17T03:14:43.251Z,18.37
2018-02-17T03:17:09.486Z,13.73
2018-02-17T03:19:36.433Z,14.27
2018-02-17T03:22:04.002Z,14.15
2018-02-17T03:24:30.958Z,14.02
2018-02-17T03:26:57.238Z,15.40
2018-02-17T03:29:23.562Z,17.85
2018-02-17T03:31:50.016Z,12.55
2018-02-17T03:34:16.424Z,11.93
2018-02-17T03:36:43.205Z,12.10
2018-02-17T03:39:10.681Z,13.90
2018-02-17T03:41:37.405Z,13.02
2018-02-17T03:44:04.379Z,12.45
2018-02-17T03:46:31.276Z,12.95
2018-02-17T03:48:58.240Z,13.62
2018-02-17T03:51:25.829Z,14.18
2018-02-17T03:53:52.596Z,12.23
2018-02-17T03:56:18.807Z,13.10
2018-02-17T03:58:45.020Z,12.35
2018-02-17T04:01:12.318Z,14.45
2018-02-17T04:03:38.522Z,11.57
2018-02-17T04:06:05.052Z,11.60
2018-02-17T04:08:32.080Z,12.80
2018-02-17T04:10:58.722Z,12.10
2018-02-17T04:13:26.882Z,12.52
2018-02-17T04:15:53.112Z,10.25
2018-02-17T04:18:21.126Z,11.20
2018-02-17T04:20:48.117Z,12.37
2018-02-17T04:23:15.028Z,14.90
2018-02-17T04:25:41.991Z,9.82
2018-02-17T04:28:09.062Z,11.73
2018-02-17T04:30:35.285Z,11.68
2018-02-17T04:33:01.607Z,13.02
2018-02-17T04:35:28.802Z,10.55
2018-02-17T04:37:55.902Z,11.23
2018-02-17T04:40:24.767Z,10.93
2018-02-17T04:42:55.636Z,12.93
2018-02-17T04:45:21.892Z,14.25
2018-02-17T04:48:04.098Z,15.55
2018-02-17T04:50:33.009Z,12.18
2018-02-17T04:56:08.354Z,10.82
2018-02-17T04:58:38.957Z,12.25
2018-02-17T05:01:20.133Z,14.30
2018-02-17T05:03:46.362Z,14.25
2018-02-17T05:06:13.203Z,22.35
2018-02-17T05:08:45.198Z,19.37
2018-02-17T05:11:11.587Z,13.55
2018-02-17T05:13:38.387Z,12.23
2018-02-17T05:16:10.726Z,12.05
2018-02-17T05:18:47.928Z,11.32
2018-02-17T05:21:26.519Z,13.45
2018-02-17T05:23:53.822Z,12.55
2018-02-17T05:29:25.044Z,13.35
2018-02-17T05:31:53.736Z,13.60
2018-02-17T05:34:31.848Z,18.00
2018-02-17T05:36:58.643Z,13.48
2018-02-17T05:39:24.898Z,11.40
2018-02-17T05:41:55.715Z,13.15
2018-02-17T05:44:29.827Z,14.05
2018-02-17T05:46:59.427Z,11.20
2018-02-17T05:49:29.496Z,12.82
2018-02-17T05:51:55.715Z,11.85
2018-02-17T05:54:22.544Z,12.60
2018-02-17T05:56:49.304Z,11.73
2018-02-17T05:59:15.532Z,12.40
2018-02-17T06:01:41.746Z,13.60
2018-02-17T06:04:08.589Z,11.93
2018-02-17T06:06:35.587Z,14.18
2018-02-17T06:09:02.370Z,13.02
2018-02-17T06:11:30.006Z,14.45
2018-02-17T06:13:58.201Z,8.20
2018-02-17T06:16:24.454Z,9.93
2018-02-17T06:18:50.762Z,13.88
2018-02-17T06:21:18.630Z,9.75
2018-02-17T06:23:45.653Z,8.82
2018-02-17T06:26:17.488Z,10.35
2018-02-17T06:28:43.728Z,10.95
2018-02-17T06:31:09.998Z,9.85
2018-02-17T06:33:37.207Z,11.20
2018-02-17T06:36:03.514Z,14.82
2018-02-17T06:38:31.449Z,13.45
2018-02-17T06:40:58.710Z,14.93
2018-02-17T06:43:24.975Z,12.95
2018-02-17T06:45:51.711Z,12.20
2018-02-17T06:48:17.927Z,11.57
2018-02-17T06:50:44.893Z,12.65
2018-02-17T07:02:56.918Z,13.18
2018-02-17T07:05:23.296Z,12.37
2018-02-17T07:07:49.604Z,14.93
2018-02-17T07:10:16.420Z,10.38
2018-02-17T07:12:43.063Z,9.40
2018-02-17T07:15:09.411Z,10.95
2018-02-17T07:17:36.430Z,10.40
2018-02-17T07:20:02.680Z,11.98
2018-02-17T07:22:28.926Z,12.43
2018-02-17T07:24:56.075Z,12.35
2018-02-17T07:27:22.992Z,11.35
2018-02-17T07:29:50.311Z,12.73
2018-02-17T07:32:17.077Z,11.00
2018-02-17T07:34:43.290Z,13.23
2018-02-17T07:37:10.028Z,11.75
2018-02-17T07:39:37.472Z,11.55
2018-02-17T07:42:05.165Z,10.23
2018-02-17T07:44:31.444Z,9.90
2018-02-17T07:46:57.694Z,11.63
2018-02-17T07:49:23.900Z,11.15
2018-02-17T07:51:50.657Z,11.10
2018-02-17T07:54:18.327Z,10.00
2018-02-17T07:56:46.428Z,8.70
2018-02-17T07:59:12.739Z,9.15
2018-02-17T08:01:39.188Z,9.45
2018-02-17T08:04:06.172Z,12.63
2018-02-17T08:06:33.912Z,11.35
2018-02-17T08:09:00.959Z,10.57
2018-02-17T08:11:28.013Z,10.30
2018-02-17T08:13:54.950Z,9.48
2018-02-17T08:16:21.920Z,10.00
2018-02-17T08:18:48.172Z,10.25
2018-02-17T08:21:15.069Z,11.15
2018-02-17T08:23:41.693Z,11.68
2018-02-17T08:26:08.631Z,14.35
2018-02-17T08:38:24.440Z,10.73
2018-02-17T08:40:50.756Z,13.02
2018-02-17T08:43:17.096Z,12.05
2018-02-17T08:45:43.440Z,12.57
2018-02-17T08:48:10.379Z,11.32
2018-02-17T08:50:37.413Z,11.85
2018-02-17T08:53:04.661Z,12.45
2018-02-17T08:55:30.958Z,11.05
2018-02-17T08:57:58.050Z,11.05
2018-02-17T09:00:24.673Z,11.40
2018-02-17T09:02:51.999Z,11.48
2018-02-17T09:05:20.871Z,12.07
2018-02-17T09:07:47.851Z,12.13
2018-02-17T09:10:15.055Z,12.37
2018-02-17T09:12:42.449Z,13.13
2018-02-17T09:15:09.467Z,10.77
2018-02-17T09:17:35.715Z,12.18
2018-02-17T09:20:02.945Z,11.57
2018-02-17T09:22:30.450Z,11.68
2018-02-17T09:24:58.432Z,10.98
2018-02-17T09:27:25.396Z,11.25
2018-02-17T09:29:51.619Z,12.55
2018-02-17T09:32:18.609Z,12.40
2018-02-17T09:34:45.970Z,14.50
2018-02-17T09:37:12.232Z,12.73
2018-02-17T09:39:39.063Z,14.55
2018-02-17T09:42:05.738Z,11.48
2018-02-17T09:44:33.726Z,11.05
2018-02-17T09:46:59.996Z,12.20
2018-02-17T09:49:26.494Z,11.80
2018-02-17T09:51:54.139Z,10.98
2018-02-17T09:54:21.413Z,13.73
2018-02-17T09:56:48.953Z,13.43
2018-02-17T09:59:15.642Z,14.50
2018-02-17T10:01:42.811Z,11.88
2018-02-17T10:04:09.109Z,13.27
2018-02-17T10:06:36.050Z,14.55
2018-02-17T10:09:02.279Z,15.85
2018-02-17T10:11:28.797Z,18.35
2018-02-17T10:13:55.187Z,16.20
2018-02-17T10:16:21.808Z,11.55
2018-02-17T10:18:48.169Z,10.88
2018-02-17T10:21:14.999Z,10.07
2018-02-17T10:23:41.646Z,10.00
2018-02-17T10:26:09.708Z,9.80
2018-02-17T10:28:36.234Z,9.13
2018-02-17T10:31:02.484Z,9.52
2018-02-17T10:33:28.763Z,8.88
2018-02-17T10:35:54.956Z,8.70
2018-02-17T10:38:21.195Z,9.30
2018-02-17T10:40:48.398Z,8.60
2018-02-17T10:43:15.229Z,8.02
2018-02-17T10:45:42.022Z,7.82
2018-02-17T10:48:09.561Z,7.70
2018-02-17T10:50:38.057Z,8.65
2018-02-17T10:53:05.301Z,8.18
2018-02-17T10:55:36.532Z,8.38
2018-02-17T10:58:02.996Z,8.98
2018-02-17T11:00:29.955Z,9.00
2018-02-17T11:02:57.131Z,9.75
2018-02-17T11:25:35.305Z,12.50
2018-02-17T11:43:09.093Z,12.57
2018-02-17T11:45:35.475Z,14.10
2018-02-17T11:48:02.718Z,11.00
2018-02-17T11:50:30.397Z,12.88
2018-02-17T11:52:57.056Z,12.63
2018-02-17T11:55:24.124Z,13.27
2018-02-17T11:57:52.937Z,13.30
2018-02-17T12:00:20.120Z,11.93
2018-02-17T12:02:46.349Z,12.32
2018-02-17T12:05:12.640Z,12.70
2018-02-17T12:07:39.701Z,11.10
2018-02-17T12:10:28.061Z,12.27
2018-02-17T12:12:59.919Z,13.07
2018-02-17T12:15:28.833Z,11.68
2018-02-17T12:17:56.272Z,13.20
2018-02-17T13:18:00.043Z,13.35
2018-02-17T13:20:27.179Z,13.85
2018-02-17T13:22:54.174Z,14.15
2018-02-17T13:25:20.405Z,14.85
2018-02-17T13:27:46.672Z,12.45
2018-02-17T13:30:15.903Z,14.68
2018-02-17T13:32:45.664Z,11.90
2018-02-17T13:35:12.071Z,13.48
2018-02-17T13:37:40.041Z,14.05
2018-02-17T13:40:06.517Z,14.32
2018-02-17T13:42:32.981Z,14.38
2018-02-17T13:45:00.228Z,13.20
2018-02-17T13:47:27.163Z,15.23
2018-02-17T13:49:54.773Z,14.48
2018-02-17T13:52:22.189Z,13.60
2018-02-17T13:54:48.720Z,11.98
2018-02-17T13:57:15.901Z,14.32
2018-02-17T13:59:42.792Z,19.42
2018-02-17T14:02:08.902Z,17.95
2018-02-17T14:04:36.586Z,19.50
2018-02-17T14:07:03.592Z,17.65
2018-02-17T14:09:30.879Z,15.05
2018-02-17T14:11:57.220Z,13.80
2018-02-17T14:14:24.847Z,14.70
2018-02-17T14:16:51.107Z,19.05
2018-02-17T14:19:18.073Z,16.42
2018-02-17T14:21:44.301Z,13.35
2018-02-17T14:24:11.195Z,27.58
2018-02-17T14:26:37.880Z,17.48
2018-02-17T14:29:05.033Z,20.77
2018-02-17T14:31:31.421Z,22.60
2018-02-17T14:33:57.748Z,20.83
2018-02-17T14:36:24.216Z,18.45
2018-02-17T14:38:51.334Z,18.37
2018-02-17T14:41:17.638Z,15.63
2018-02-17T14:43:45.415Z,12.40
2018-02-17T14:46:13.015Z,11.82
2018-02-17T14:48:39.585Z,11.15
2018-02-17T14:51:07.310Z,13.50
2018-02-17T14:53:34.367Z,12.07
2018-02-17T14:56:01.599Z,11.23
2018-02-17T14:58:28.029Z,12.13
2018-02-17T15:00:54.419Z,10.98
2018-02-17T15:03:20.663Z,12.20
2018-02-17T15:05:47.017Z,12.27
2018-02-17T15:08:13.294Z,10.05
2018-02-17T15:10:40.148Z,12.93
2018-02-17T15:13:06.369Z,13.43
2018-02-17T15:15:33.033Z,14.68
2018-02-17T15:17:59.325Z,17.65
2018-02-17T15:20:26.139Z,22.55
2018-02-17T15:22:53.396Z,20.27
2018-02-17T15:25:21.064Z,22.30
2018-02-17T15:27:47.647Z,20.60
2018-02-17T15:30:14.957Z,18.45
2018-02-17T15:32:41.845Z,23.23
2018-02-17T15:35:08.788Z,18.73
2018-02-17T15:37:35.227Z,17.48
2018-02-17T15:40:01.790Z,19.30
2018-02-17T15:42:29.229Z,16.35
2018-02-17T15:44:56.552Z,19.60
2018-02-17T15:47:23.692Z,17.87
2018-02-17T15:49:49.899Z,15.93
2018-02-17T15:52:16.165Z,15.60
2018-02-17T15:54:42.777Z,14.43
2018-02-17T15:57:09.853Z,17.77
2018-02-17T15:59:36.455Z,19.10
2018-02-17T16:02:03.538Z,17.50
2018-02-17T16:04:30.418Z,20.55
2018-02-17T16:06:58.390Z,18.85
2018-02-17T16:09:26.683Z,17.98
2018-02-17T16:11:52.919Z,16.45
2018-02-17T16:14:19.371Z,18.87
2018-02-17T16:16:45.597Z,18.87
2018-02-17T16:19:11.803Z,17.17
2018-02-17T16:21:38.384Z,19.92
2018-02-17T16:24:06.510Z,17.23
2018-02-17T16:26:33.735Z,19.58
2018-02-17T16:29:01.770Z,21.42
2018-02-17T16:31:28.003Z,17.35
2018-02-17T16:33:54.203Z,17.37
2018-02-17T16:36:20.595Z,17.65
2018-02-17T16:38:47.642Z,20.83
2018-02-17T16:41:13.922Z,18.27
2018-02-17T16:43:40.325Z,15.60
2018-02-17T16:46:06.547Z,15.93
2018-02-17T16:48:34.561Z,16.95
2018-02-17T16:51:00.803Z,15.27
2018-02-17T16:53:27.705Z,15.90
2018-02-17T16:55:54.525Z,19.33
2018-02-17T16:58:21.487Z,16.10
2018-02-17T17:00:48.208Z,15.60
2018-02-17T17:03:15.724Z,18.77
2018-02-17T17:05:43.885Z,18.55
2018-02-17T17:08:10.194Z,20.48
2018-02-17T17:10:36.557Z,19.60
2018-02-17T17:13:02.774Z,18.23
2018-02-17T17:15:36.673Z,16.77
2018-02-17T17:18:03.577Z,15.88
2018-02-17T17:20:33.972Z,16.33
2018-02-17T17:23:00.490Z,15.98
2018-02-17T17:25:27.522Z,17.77
2018-02-17T17:27:53.803Z,17.75
2018-02-17T17:30:21.079Z,13.90
2018-02-17T17:32:47.840Z,14.63
2018-02-17T17:35:15.002Z,15.63
2018-02-17T17:37:41.665Z,19.10
2018-02-17T17:40:09.809Z,19.30
2018-02-17T17:42:36.033Z,15.18
2018-02-17T17:45:02.300Z,15.45
2018-02-17T17:47:28.905Z,18.50
2018-02-17T17:49:55.136Z,16.52
2018-02-17T17:52:22.015Z,19.42
2018-02-17T17:54:49.861Z,22.15
2018-02-17T17:57:16.887Z,18.62
2018-02-17T17:59:43.087Z,19.15
2018-02-17T18:02:10.407Z,30.35
2018-02-17T18:04:37.308Z,19.42
2018-02-17T18:07:03.566Z,23.25
2018-02-17T18:09:30.941Z,21.87
2018-02-17T18:11:58.495Z,20.65
2018-02-17T18:14:25.343Z,21.00
2018-02-17T18:16:52.937Z,30.67
2018-02-17T18:19:19.155Z,20.90
2018-02-17T18:21:46.094Z,20.10
2018-02-17T18:24:13.330Z,17.95
2018-02-17T18:26:40.471Z,20.80
2018-02-17T18:29:07.063Z,20.58
2018-02-17T18:31:33.774Z,22.02
2018-02-17T18:34:00.524Z,21.90
2018-02-17T18:36:27.185Z,20.88
2018-02-17T18:38:53.952Z,23.33
2018-02-17T18:41:20.984Z,20.73
2018-02-17T18:43:48.045Z,18.10
2018-02-17T18:46:18.594Z,20.35
2018-02-17T18:48:45.382Z,19.65
2018-02-17T18:51:12.090Z,19.73
2018-02-17T18:53:39.855Z,21.20
2018-02-17T18:56:06.111Z,21.92
2018-02-17T18:58:32.700Z,21.45
2018-02-17T19:01:00.495Z,21.50
2018-02-17T19:03:26.748Z,21.50
2018-02-17T19:05:52.975Z,20.52
2018-02-17T19:08:19.190Z,24.08
2018-02-17T19:10:45.414Z,25.42
2018-02-17T19:13:12.626Z,27.83
2018-02-17T19:15:38.978Z,27.35
2018-02-17T19:18:05.879Z,25.85
2018-02-17T19:20:32.844Z,24.48
2018-02-17T19:22:59.060Z,23.02
2018-02-17T19:25:25.244Z,25.40
2018-02-17T19:27:52.004Z,21.58
2018-02-17T19:30:18.179Z,24.42
2018-02-17T19:32:44.752Z,21.90
2018-02-17T19:35:12.849Z,27.37
2018-02-17T19:37:39.051Z,29.27
2018-02-17T19:40:05.669Z,25.83
2018-02-17T19:42:33.810Z,25.10
2018-02-17T19:45:01.166Z,25.70
2018-02-17T19:47:28.106Z,26.08
2018-02-17T19:49:54.937Z,26.77
2018-02-17T19:52:21.668Z,24.33
2018-02-17T19:54:48.864Z,30.42
2018-02-17T19:57:15.616Z,30.50
2018-02-17T19:59:42.496Z,29.52
2018-02-17T20:02:08.692Z,28.70
2018-02-17T20:04:34.948Z,24.58
2018-02-17T20:07:01.820Z,27.30
2018-02-17T20:09:28.873Z,27.40
2018-02-17T20:11:55.854Z,27.40
2018-02-17T20:14:22.596Z,22.48
2018-02-17T20:16:50.406Z,22.58
2018-02-17T20:19:17.789Z,22.60
2018-02-17T20:21:45.291Z,21.58
2018-02-17T20:24:13.239Z,19.00
2018-02-17T20:26:39.724Z,22.65
2018-02-17T20:29:06.638Z,21.40
2018-02-17T20:31:33.123Z,22.37
2018-02-17T20:34:00.804Z,22.35
2018-02-17T20:36:27.691Z,16.37
2018-02-17T20:38:53.889Z,16.98
2018-02-17T20:41:20.124Z,17.90
2018-02-17T20:43:46.629Z,18.80
2018-02-17T20:46:14.695Z,19.52
2018-02-17T20:48:42.588Z,19.40
2018-02-17T20:51:10.250Z,19.80
2018-02-17T20:53:36.541Z,20.30
2018-02-17T20:56:03.740Z,18.50
2018-02-17T20:58:30.402Z,20.15
2018-02-17T21:00:56.762Z,20.00
2018-02-17T21:03:23.012Z,20.55
2018-02-17T21:05:49.245Z,19.67
2018-02-17T21:08:16.200Z,20.95
2018-02-17T21:10:42.957Z,16.08
2018-02-17T21:13:09.842Z,16.87
2018-02-17T21:15:36.382Z,17.42
2018-02-17T21:18:03.816Z,17.50
2018-02-17T21:20:30.895Z,18.55
2018-02-17T21:22:58.149Z,17.62
2018-02-17T21:25:24.694Z,17.70
2018-02-17T21:27:52.103Z,17.23
2018-02-17T21:30:19.467Z,18.33
2018-02-17T21:32:45.701Z,19.80
2018-02-17T21:35:12.808Z,18.10
2018-02-17T21:37:39.074Z,16.15
2018-02-17T21:40:05.304Z,18.35
2018-02-17T21:42:32.337Z,18.52
2018-02-17T21:44:59.451Z,17.73
2018-02-17T21:47:26.606Z,18.12
2018-02-17T21:49:53.891Z,18.55
2018-02-17T21:52:20.891Z,17.70
2018-02-17T21:54:47.147Z,18.73
2018-02-17T21:57:13.987Z,15.60
2018-02-17T21:59:40.227Z,17.67
2018-02-17T22:02:06.452Z,18.70
2018-02-17T22:04:33.708Z,19.37
2018-02-17T22:07:00.727Z,16.55
2018-02-17T22:09:27.692Z,15.98
2018-02-17T22:11:54.267Z,20.02
2018-02-17T22:14:21.583Z,20.85
2018-02-17T22:16:47.797Z,20.40
2018-02-17T22:19:14.727Z,19.67
2018-02-17T22:21:42.189Z,16.50
2018-02-17T22:24:09.845Z,17.70
2018-02-17T22:26:36.307Z,18.85
2018-02-17T22:29:02.538Z,20.12
2018-02-17T22:31:28.756Z,17.05
2018-02-17T22:33:55.965Z,18.45
2018-02-17T22:36:22.515Z,19.08
2018-02-17T22:38:49.951Z,19.10
2018-02-17T22:47:11.424Z,17.80
2018-02-17T22:49:38.767Z,21.50
2018-02-17T22:52:14.023Z,20.10
2018-02-17T22:54:41.249Z,19.92
2018-02-17T22:57:10.091Z,19.62
2018-02-17T22:59:36.398Z,19.35
2018-02-17T23:02:04.074Z,21.12
2018-02-17T23:04:30.833Z,16.92
2018-02-17T23:06:57.693Z,18.42
2018-02-17T23:12:20.006Z,21.90
2018-02-17T23:14:49.506Z,22.92
2018-02-17T23:17:16.540Z,20.73
2018-02-17T23:19:43.305Z,21.58
2018-02-17T23:22:12.770Z,20.52
2018-02-17T23:24:39.054Z,21.60
2018-02-17T23:27:05.611Z,19.35
2018-02-17T23:29:32.574Z,20.77
2018-02-17T23:31:58.958Z,20.77
2018-02-17T23:34:25.468Z,17.67
2018-02-17T23:36:51.960Z,22.17
2018-02-17T23:39:19.035Z,18.67
2018-02-17T23:41:45.441Z,19.62
2018-02-17T23:44:12.604Z,20.00
2018-02-17T23:46:38.877Z,18.20
2018-02-17T23:49:06.096Z,19.27
2018-02-17T23:51:33.588Z,18.00
2018-02-17T23:56:54.512Z,18.17
2018-02-17T23:59:21.979Z,19.33
